Time;durP1;ratioP1;P1;durP2;ratioP2;P2;SDS_P1;SDS_P2;PMS_P1;PMS_P2;Temp;Humidity;BMP_temperature;BMP_pressure;BME280_temperature;BME280_humidity;BME280_pressure;Samples;Min_cycle;Max_cycle;Signal;HPM_P1;HPM_P2
2022/09/01 00:02:14;;;;;;;5.70;1.10;;;;;;;15.86;63.41;101876.94;5215029;28;20025;-69
2022/09/01 00:04:46;;;;;;;3.83;1.10;;;;;;;15.80;63.22;101863.97;5203867;28;20040;-69
2022/09/01 00:07:17;;;;;;;3.20;1.20;;;;;;;15.85;65.51;101864.44;5206971;28;20030;-69
2022/09/01 00:09:48;;;;;;;2.85;1.10;;;;;;;15.81;65.31;101868.38;5199280;28;20480;-69
2022/09/01 00:12:21;;;;;;;4.22;1.60;;;;;;;15.72;65.64;101866.41;5206516;28;20472;-69
2022/09/01 00:14:52;;;;;;;5.40;1.33;;;;;;;15.78;68.67;101863.25;5200677;28;20038;-69
2022/09/01 00:17:24;;;;;;;4.30;1.20;;;;;;;15.73;68.88;101865.47;5202470;28;20077;-69
2022/09/01 00:19:55;;;;;;;3.05;1.20;;;;;;;15.62;66.74;101860.91;5204021;28;20033;-69
2022/09/01 00:22:28;;;;;;;2.75;1.00;;;;;;;15.62;67.15;101860.06;5204041;28;20032;-69
2022/09/01 00:25:00;;;;;;;3.40;1.23;;;;;;;15.58;66.83;101858.63;5203662;28;20496;-69
2022/09/01 00:27:32;;;;;;;2.67;0.98;;;;;;;15.47;66.97;101865.72;5203188;28;20030;-69
2022/09/01 00:30:04;;;;;;;4.35;1.40;;;;;;;15.54;68.72;101862.53;5202221;28;20095;-69
2022/09/01 00:32:35;;;;;;;4.22;1.30;;;;;;;15.46;69.13;101869.38;5203061;28;20338;-69
2022/09/01 00:35:07;;;;;;;5.13;1.30;;;;;;;15.52;70.37;101859.97;5204431;28;20061;-69
2022/09/01 00:37:38;;;;;;;3.47;1.13;;;;;;;15.51;69.15;101862.78;5202241;28;20335;-69
2022/09/01 00:40:12;;;;;;;2.75;1.13;;;;;;;15.42;72.43;101869.78;5201619;28;20026;-69
2022/09/01 00:42:44;;;;;;;2.78;1.15;;;;;;;15.37;71.19;101862.06;5203961;28;20038;-69
2022/09/01 00:45:15;;;;;;;5.88;1.35;;;;;;;15.47;75.75;101867.53;5203180;28;20018;-69
2022/09/01 00:47:48;;;;;;;3.80;1.40;;;;;;;15.25;72.57;101863.06;5204819;28;20038;-69
2022/09/01 00:50:20;;;;;;;3.05;1.25;;;;;;;15.27;73.79;101855.72;5209634;28;20070;-69
2022/09/01 00:52:54;;;;;;;3.50;1.10;;;;;;;15.22;72.26;101865.97;5204535;28;20061;-69
2022/09/01 00:55:29;;;;;;;;;;;;;;;15.36;70.86;101865.75;5211342;28;20034;-69
2022/09/01 00:58:02;;;;;;;5.47;1.35;;;;;;;15.27;74.18;101858.41;5203256;28;19923;-69
2022/09/01 01:00:40;;;;;;;2.88;1.40;;;;;;;15.27;74.70;101863.78;5201908;28;20030;-69
2022/09/01 01:03:12;;;;;;;2.90;1.20;;;;;;;15.28;76.30;101862.78;5200485;28;20066;-69
2022/09/01 01:05:53;;;;;;;5.07;1.33;;;;;;;15.12;76.25;101862.31;5205375;28;20037;-69
2022/09/01 01:08:35;;;;;;;3.22;1.48;;;;;;;15.07;76.59;101852.81;5204901;28;20373;-69
2022/09/01 01:11:16;;;;;;;4.13;1.48;;;;;;;15.07;77.51;101854.59;5201457;28;21255;-69
2022/09/01 01:13:51;;;;;;;5.20;1.30;;;;;;;14.90;79.18;101847.91;5200024;28;20026;-69
2022/09/01 01:16:26;;;;;;;5.00;1.23;;;;;;;14.90;78.97;101847.91;5206436;28;20029;-69
2022/09/01 01:18:57;;;;;;;4.97;1.60;;;;;;;14.87;81.51;101843.59;5201924;28;20022;-69
2022/09/01 01:24:33;;;;;;;5.50;1.67;;;;;;;14.77;81.74;101852.53;5201676;28;20073;-68
2022/09/01 01:27:05;;;;;;;3.47;1.70;;;;;;;14.65;79.10;101854.31;5200788;28;20054;-69
2022/09/01 01:29:38;;;;;;;4.78;1.35;;;;;;;14.64;82.07;101848.09;5200875;28;20034;-69
2022/09/01 01:32:11;;;;;;;3.38;1.80;;;;;;;14.54;80.93;101852.44;5201294;28;20037;-69
2022/09/01 01:34:44;;;;;;;2.80;1.50;;;;;;;14.42;80.21;101853.38;5203538;28;20112;-69
2022/09/01 01:37:16;;;;;;;4.45;1.80;;;;;;;14.46;83.58;101849.50;5200638;28;20176;-69
2022/09/01 01:39:47;;;;;;;5.30;1.67;;;;;;;14.41;79.80;101849.00;5202597;28;20034;-69
2022/09/01 01:42:19;;;;;;;3.90;1.83;;;;;;;14.41;81.71;101849.84;5200287;28;20042;-69
2022/09/01 01:44:51;;;;;;;4.05;2.17;;;;;;;14.50;82.88;101857.19;5200746;28;20057;-69
2022/09/01 01:47:22;;;;;;;3.75;1.50;;;;;;;14.32;81.08;101848.75;5202956;28;20029;-69
2022/09/01 01:49:56;;;;;;;4.68;1.70;;;;;;;14.25;82.76;101858.22;5200823;28;20065;-69
2022/09/01 01:52:28;;;;;;;3.65;1.50;;;;;;;14.44;84.51;101852.31;5204159;28;20526;-69
2022/09/01 01:55:00;;;;;;;5.80;1.70;;;;;;;14.18;83.60;101850.75;5199281;28;20091;-69
2022/09/01 01:57:31;;;;;;;3.38;1.67;;;;;;;14.22;86.32;101857.59;5201765;28;20119;-69
2022/09/01 02:00:03;;;;;;;3.45;1.70;;;;;;;14.08;83.64;101854.13;5209785;28;20555;-69
2022/09/01 02:02:36;;;;;;;6.22;1.95;;;;;;;14.07;87.17;101857.75;5213125;28;20024;-69
2022/09/01 02:05:08;;;;;;;5.35;1.73;;;;;;;14.04;86.23;101859.84;5207307;28;20034;-69
2022/09/01 02:07:41;;;;;;;3.08;1.55;;;;;;;13.94;85.97;101857.00;5205739;28;20072;-68
2022/09/01 02:10:13;;;;;;;4.45;1.88;;;;;;;13.99;84.83;101856.66;5209254;28;20129;-69
2022/09/01 02:12:45;;;;;;;7.15;2.00;;;;;;;14.00;87.25;101855.66;5201641;28;20790;-69
2022/09/01 02:15:16;;;;;;;3.63;1.65;;;;;;;13.99;87.38;101851.28;5212531;28;20125;-68
2022/09/01 02:17:48;;;;;;;6.65;1.83;;;;;;;13.96;86.81;101854.19;5203722;28;20022;-68
2022/09/01 02:20:23;;;;;;;3.22;1.77;;;;;;;13.93;86.29;101858.81;5213641;28;20057;-69
2022/09/01 02:22:55;;;;;;;5.45;1.75;;;;;;;13.86;85.13;101851.31;5200916;28;20057;-68
2022/09/01 02:25:26;;;;;;;3.28;1.80;;;;;;;13.91;87.36;101855.38;5207087;28;20412;-69
2022/09/01 02:27:58;;;;;;;5.00;1.83;;;;;;;13.86;86.27;101843.28;5214678;28;20070;-69
2022/09/01 02:30:31;;;;;;;5.07;1.90;;;;;;;13.88;84.83;101850.25;5203179;28;20041;-69
2022/09/01 02:33:03;;;;;;;4.32;2.15;;;;;;;13.84;86.93;101848.75;5203889;28;20472;-69
2022/09/01 02:35:36;;;;;;;4.25;1.70;;;;;;;13.80;87.06;101855.31;5209842;28;20144;-68
2022/09/01 02:38:08;;;;;;;4.38;2.20;;;;;;;13.77;87.47;101858.25;5203607;28;20033;-69
2022/09/01 02:40:45;;;;;;;3.60;1.90;;;;;;;13.78;89.13;101851.06;5205548;28;20041;-69
2022/09/01 02:43:19;;;;;;;4.93;2.08;;;;;;;13.69;88.92;101852.56;5207862;28;20030;-68
2022/09/01 02:45:54;;;;;;;4.13;1.98;;;;;;;13.68;90.33;101854.41;5203538;28;20116;-69
2022/09/01 02:48:34;;;;;;;3.85;1.77;;;;;;;13.69;89.62;101855.25;5201927;28;20041;-69
2022/09/01 02:51:13;;;;;;;4.07;2.00;;;;;;;13.66;89.38;101850.97;5205203;28;20029;-69
2022/09/01 02:53:50;;;;;;;6.57;2.25;;;;;;;13.63;88.62;101847.66;5206255;28;20037;-68
2022/09/01 02:56:24;;;;;;;3.78;2.00;;;;;;;13.61;89.14;101839.72;5205901;28;20472;-69
2022/09/01 02:58:55;;;;;;;3.57;2.03;;;;;;;13.55;90.63;101842.00;5202167;28;20034;-68
2022/09/01 03:01:29;;;;;;;3.53;1.77;;;;;;;13.64;91.55;101844.03;5203397;28;20488;-68
2022/09/01 03:04:04;;;;;;;5.05;2.40;;;;;;;13.47;90.31;101840.75;5205055;28;20550;-69
2022/09/01 03:06:36;;;;;;;6.78;2.10;;;;;;;13.40;89.97;101836.78;5209305;28;20026;-69
2022/09/01 03:09:10;;;;;;;5.97;2.47;;;;;;;13.45;90.45;101834.63;5204077;28;20117;-69
2022/09/01 03:11:43;;;;;;;;;;;;;;;13.49;87.65;101832.59;5217839;28;20527;-69
2022/09/01 03:14:15;;;;;;;3.70;2.08;;;;;;;13.38;91.36;101843.25;5204034;28;19932;-69
2022/09/01 03:16:47;;;;;;;5.50;2.10;;;;;;;13.38;91.93;101835.19;5199342;28;20037;-68
2022/09/01 03:19:18;;;;;;;5.10;2.35;;;;;;;13.28;91.63;101835.81;5203835;28;20030;-69
2022/09/01 03:21:49;;;;;;;4.38;2.00;;;;;;;13.26;89.76;101839.59;5210649;28;20082;-68
2022/09/01 03:24:21;;;;;;;5.25;2.20;;;;;;;13.18;90.83;101833.94;5213646;28;20434;-68
2022/09/01 03:26:52;;;;;;;8.18;2.38;;;;;;;13.18;92.79;101837.47;5209899;28;20041;-69
2022/09/01 03:29:23;;;;;;;7.28;2.42;;;;;;;13.18;94.30;101842.81;5205322;28;20038;-69
2022/09/01 03:31:55;;;;;;;4.07;2.30;;;;;;;13.11;92.60;101846.91;5218048;28;20019;-69
2022/09/01 03:34:26;;;;;;;4.32;2.25;;;;;;;13.04;92.21;101846.50;5200804;28;20037;-68
2022/09/01 03:36:58;;;;;;;5.55;2.30;;;;;;;13.07;94.45;101843.56;5208474;28;20069;-68
2022/09/01 03:39:29;;;;;;;4.13;2.28;;;;;;;12.94;93.41;101845.41;5208903;28;20038;-68
2022/09/01 03:42:00;;;;;;;5.25;2.35;;;;;;;12.88;92.87;101835.13;5202965;28;20029;-68
2022/09/01 03:44:39;;;;;;;4.57;2.33;;;;;;;12.92;94.25;101839.31;5205295;28;20037;-69
2022/09/01 03:47:14;;;;;;;3.90;2.60;;;;;;;12.88;95.47;101835.97;5205284;28;20029;-68
2022/09/01 03:49:48;;;;;;;5.53;2.58;;;;;;;12.85;93.59;101838.91;5208911;28;20049;-69
2022/09/01 03:52:19;;;;;;;7.57;2.50;;;;;;;12.84;94.88;101839.00;5217601;28;20384;-68
2022/09/01 03:54:52;;;;;;;7.82;2.70;;;;;;;12.92;96.56;101842.88;5227472;28;20029;-69
2022/09/01 03:57:25;;;;;;;10.20;2.90;;;;;;;12.84;96.39;101831.81;5216144;28;20032;-68
2022/09/01 03:59:58;;;;;;;5.20;2.50;;;;;;;12.76;93.95;101831.50;5214704;28;20044;-68
2022/09/01 04:02:30;;;;;;;6.03;2.47;;;;;;;12.78;95.93;101826.91;5198788;28;20030;-68
2022/09/01 04:05:01;;;;;;;7.10;2.78;;;;;;;12.77;96.42;101837.72;5208201;28;20057;-69
2022/09/01 04:07:32;;;;;;;4.82;2.38;;;;;;;12.83;96.91;101830.13;5199721;28;20026;-68
2022/09/01 04:10:04;;;;;;;5.90;2.60;;;;;;;12.77;96.56;101835.03;5218550;28;20380;-69
2022/09/01 04:12:37;;;;;;;10.50;3.15;;;;;;;12.71;97.54;101831.84;5206116;28;20104;-69
2022/09/01 04:15:09;;;;;;;9.40;2.70;;;;;;;12.69;95.66;101827.53;5210183;28;20327;-68
2022/09/01 04:20:38;;;;;;;5.28;2.88;;;;;;;12.79;94.61;101833.09;5200265;28;20531;-68
2022/09/01 04:23:09;;;;;;;5.53;3.10;;;;;;;12.92;96.45;101826.78;5204358;28;20034;-68
2022/09/01 04:25:41;;;;;;;8.23;2.97;;;;;;;12.94;94.93;101826.66;5206712;28;20033;-69
2022/09/01 04:28:21;;;;;;;7.25;2.70;;;;;;;12.93;93.01;101835.69;5215208;28;20033;-68
2022/09/01 04:30:55;;;;;;;7.13;2.78;;;;;;;12.96;95.00;101840.81;5197874;28;20480;-68
2022/09/01 04:33:35;;;;;;;11.25;3.30;;;;;;;13.07;95.35;101837.38;5200807;27;20079;-68
2022/09/01 04:36:18;;;;;;;9.27;2.83;;;;;;;13.08;93.32;101836.41;5206172;28;20037;-68
2022/09/01 04:38:53;;;;;;;10.05;3.00;;;;;;;13.00;92.12;101836.09;5202490;28;20038;-68
2022/09/01 04:41:30;;;;;;;9.55;3.00;;;;;;;12.98;91.95;101843.38;5203597;28;20169;-68
2022/09/01 04:44:03;;;;;;;6.50;3.15;;;;;;;13.12;95.36;101840.59;5202050;28;20482;-69
2022/09/01 04:46:41;;;;;;;8.37;2.77;;;;;;;12.93;93.25;101849.06;5203534;28;20510;-69
2022/09/01 04:49:18;;;;;;;8.68;3.22;;;;;;;12.87;91.16;101844.16;5201576;28;20457;-68
2022/09/01 04:51:51;;;;;;;10.05;3.00;;;;;;;12.93;94.92;101838.34;5201343;28;20032;-68
2022/09/01 04:54:23;;;;;;;7.00;2.85;;;;;;;12.77;93.08;101838.59;5201524;28;20034;-68
2022/09/01 04:56:54;;;;;;;7.90;3.38;;;;;;;12.80;93.84;101842.88;5205142;28;20040;-68
2022/09/01 04:59:26;;;;;;;9.93;2.80;;;;;;;12.77;93.63;101837.72;5202979;28;20476;-69
2022/09/01 05:01:59;;;;;;;9.18;2.78;;;;;;;12.74;94.31;101834.28;5209855;28;20048;-68
2022/09/01 05:04:32;;;;;;;6.13;2.65;;;;;;;12.76;93.73;101839.53;5200351;28;20064;-68
2022/09/01 05:07:04;;;;;;;6.70;3.00;;;;;;;12.81;95.95;101839.19;5206779;28;20046;-68
2022/09/01 05:09:36;;;;;;;8.73;2.33;;;;;;;12.70;93.34;101838.13;5203074;28;20030;-68
2022/09/01 05:12:09;;;;;;;8.25;2.95;;;;;;;12.70;92.82;101840.81;5202686;28;20083;-68
2022/09/01 05:14:47;;;;;;;5.30;2.80;;;;;;;12.72;94.79;101843.41;5209078;28;20061;-68
2022/09/01 05:17:18;;;;;;;6.80;2.55;;;;;;;12.73;93.84;101842.41;5199834;28;20042;-68
2022/09/01 05:19:49;;;;;;;7.60;2.80;;;;;;;12.68;94.10;101842.75;5198555;28;20488;-68
2022/09/01 05:22:21;;;;;;;7.38;2.70;;;;;;;12.66;91.83;101839.31;5202472;28;20078;-68
2022/09/01 05:24:53;;;;;;;10.75;2.70;;;;;;;12.71;93.93;101847.91;5203534;28;20067;-69
2022/09/01 05:27:25;;;;;;;5.82;2.83;;;;;;;12.70;93.95;101845.31;5205530;28;20029;-69
2022/09/01 05:29:59;;;;;;;7.35;2.90;;;;;;;12.71;94.85;101839.00;5205034;28;20491;-69
2022/09/01 05:32:32;;;;;;;6.18;2.47;;;;;;;12.75;92.43;101846.72;5204247;28;20492;-68
2022/09/01 05:35:07;;;;;;;8.10;2.80;;;;;;;12.86;94.98;101845.09;5207024;28;20033;-68
2022/09/01 05:37:38;;;;;;;9.15;2.90;;;;;;;12.90;94.89;101842.09;5204058;28;20065;-69
2022/09/01 05:40:14;;;;;;;7.50;2.88;;;;;;;12.99;93.93;101845.94;5208409;28;20179;-69
2022/09/01 05:42:46;;;;;;;6.97;2.83;;;;;;;12.97;92.60;101844.34;5207921;28;20041;-69
2022/09/01 05:45:17;;;;;;;9.68;3.17;;;;;;;12.98;92.59;101849.59;5200348;28;20037;-69
2022/09/01 05:47:49;;;;;;;5.43;2.92;;;;;;;13.09;94.54;101844.31;5200951;28;20042;-68
2022/09/01 05:50:20;;;;;;;9.13;3.38;;;;;;;13.10;93.29;101851.41;5206942;28;20076;-69
2022/09/01 05:52:51;;;;;;;7.78;3.00;;;;;;;13.00;91.80;101858.41;5213521;28;20460;-68
2022/09/01 05:55:26;;;;;;;10.10;3.25;;;;;;;13.04;89.96;101859.88;5216715;28;20038;-69
2022/09/01 05:57:57;;;;;;;8.82;3.05;;;;;;;13.07;92.44;101859.66;5203896;28;20398;-69
2022/09/01 06:00:33;;;;;;;6.63;2.78;;;;;;;13.14;92.04;101857.41;5208063;28;20498;-68
2022/09/01 06:03:06;;;;;;;8.95;2.92;;;;;;;13.10;90.32;101853.25;5204422;28;20061;-69
2022/09/01 06:05:38;;;;;;;5.18;2.95;;;;;;;13.13;92.08;101853.88;5207118;28;20049;-68
2022/09/01 06:08:12;;;;;;;7.60;2.92;;;;;;;13.17;92.32;101859.00;5204340;28;20033;-68
2022/09/01 06:10:44;;;;;;;;;;;;;;;13.20;91.07;101858.81;5203689;28;20174;-68
2022/09/01 06:13:18;;;;;;;5.20;2.75;;;;;;;13.17;90.15;101853.66;5201200;28;19922;-68
2022/09/01 06:15:53;;;;;;;5.10;3.05;;;;;;;13.16;91.21;101860.84;5199380;28;20033;-69
2022/09/01 06:18:26;;;;;;;6.93;2.75;;;;;;;13.18;87.85;101863.41;5203514;28;20025;-69
2022/09/01 06:20:57;;;;;;;8.05;2.72;;;;;;;13.27;90.61;101860.94;5199698;28;20120;-68
2022/09/01 06:23:30;;;;;;;6.60;3.08;;;;;;;13.23;89.60;101859.44;5202054;28;20068;-68
2022/09/01 06:26:02;;;;;;;7.15;2.50;;;;;;;13.28;88.30;101859.09;5204989;28;20041;-68
2022/09/01 06:28:33;;;;;;;10.25;3.13;;;;;;;13.35;91.98;101857.72;5200031;28;20030;-69
2022/09/01 06:31:06;;;;;;;9.20;3.03;;;;;;;13.38;90.84;101859.31;5202735;28;20035;-69
2022/09/01 06:33:38;;;;;;;5.95;2.90;;;;;;;13.40;90.03;101862.75;5208270;28;20615;-69
2022/09/01 06:36:09;;;;;;;8.63;2.80;;;;;;;13.47;88.26;101862.19;5205943;28;20110;-68
2022/09/01 06:38:41;;;;;;;5.70;2.80;;;;;;;13.49;87.22;101859.41;5199130;28;20029;-68
2022/09/01 06:41:13;;;;;;;4.57;2.80;;;;;;;13.58;88.89;101863.25;5204198;28;20064;-68
2022/09/01 06:43:47;;;;;;;8.98;3.63;;;;;;;13.60;90.08;101866.69;5200817;28;20030;-68
2022/09/01 06:46:20;;;;;;;9.95;2.95;;;;;;;13.62;88.65;101864.75;5197742;28;20032;-68
2022/09/01 06:48:55;;;;;;;7.10;2.78;;;;;;;13.64;88.14;101866.34;5206275;28;20034;-69
2022/09/01 06:51:28;;;;;;;7.30;3.10;;;;;;;13.73;87.18;101864.81;5203049;28;20038;-68
2022/09/01 06:54:00;;;;;;;9.13;2.95;;;;;;;13.76;88.94;101866.41;5207420;28;20350;-68
2022/09/01 06:56:33;;;;;;;10.13;3.20;;;;;;;13.86;86.79;101862.06;5213131;28;20038;-69
2022/09/01 06:59:06;;;;;;;14.40;3.13;;;;;;;13.91;87.02;101868.78;5211751;28;20030;-69
2022/09/01 07:01:38;;;;;;;8.57;3.15;;;;;;;13.96;90.78;101870.28;5199856;28;20033;-69
2022/09/01 07:04:09;;;;;;;7.32;2.83;;;;;;;14.05;86.16;101872.28;5214037;28;20034;-69
2022/09/01 07:06:41;;;;;;;7.20;2.60;;;;;;;14.21;85.61;101875.53;5205440;28;20025;-69
2022/09/01 07:09:12;;;;;;;7.13;3.05;;;;;;;14.26;85.29;101875.19;5205072;28;20038;-69
2022/09/01 07:11:44;;;;;;;8.05;2.60;;;;;;;14.42;84.04;101880.22;5209958;28;20022;-68
2022/09/01 07:14:15;;;;;;;14.48;3.63;;;;;;;14.46;83.07;101887.94;5204545;28;20041;-69
2022/09/01 07:16:46;;;;;;;6.55;2.78;;;;;;;14.51;86.68;101887.59;5198264;28;20848;-68
2022/09/01 07:19:18;;;;;;;5.13;2.45;;;;;;;14.58;86.69;101888.88;5204793;28;20030;-69
2022/09/01 07:21:49;;;;;;;5.22;2.67;;;;;;;14.65;85.89;101890.13;5206938;28;20038;-69
2022/09/01 07:24:20;;;;;;;7.22;2.78;;;;;;;14.85;83.82;101887.72;5209217;28;20030;-68
2022/09/01 07:26:52;;;;;;;4.88;2.83;;;;;;;14.95;84.06;101880.63;5209296;28;20387;-69
2022/09/01 07:29:24;;;;;;;5.18;2.83;;;;;;;15.08;83.89;101886.75;5207098;28;21567;-69
2022/09/01 07:31:55;;;;;;;6.28;2.70;;;;;;;15.35;81.87;101882.00;5215892;28;20037;-69
2022/09/01 07:34:27;;;;;;;5.90;3.10;;;;;;;15.32;82.86;101876.84;5207015;28;20026;-68
2022/09/01 07:36:58;;;;;;;7.93;2.70;;;;;;;15.36;82.84;101881.88;5203825;28;20030;-69
2022/09/01 07:39:30;;;;;;;8.07;3.25;;;;;;;15.46;84.32;101882.84;5208648;28;20037;-70
2022/09/01 07:42:08;;;;;;;5.65;2.70;;;;;;;15.56;82.60;101888.31;5207729;28;20076;-71
2022/09/01 07:44:40;;;;;;;5.30;2.60;;;;;;;15.68;82.77;101892.69;5206847;28;20029;-68
2022/09/01 07:47:14;;;;;;;6.38;2.40;;;;;;;15.74;82.50;101893.22;5207479;28;20067;-69
2022/09/01 07:49:45;;;;;;;5.00;2.42;;;;;;;15.90;79.71;101885.59;5205510;28;20046;-69
2022/09/01 07:52:19;;;;;;;6.97;2.50;;;;;;;16.14;79.57;101887.22;5205625;28;20449;-69
2022/09/01 07:54:50;;;;;;;5.38;2.63;;;;;;;16.10;80.17;101889.31;5206027;28;20079;-70
2022/09/01 07:57:22;;;;;;;6.05;2.30;;;;;;;16.34;78.94;101889.13;5207037;28;20030;-69
2022/09/01 07:59:54;;;;;;;7.43;2.33;;;;;;;16.47;77.30;101888.91;5207311;28;20034;-68
2022/09/01 08:02:26;;;;;;;6.82;2.60;;;;;;;16.50;78.12;101888.66;5204275;28;20083;-68
2022/09/01 08:04:59;;;;;;;8.70;2.60;;;;;;;16.63;76.08;101892.00;5204934;28;20064;-68
2022/09/01 08:07:30;;;;;;;5.20;2.53;;;;;;;16.90;76.30;101884.41;5206647;28;20067;-68
2022/09/01 08:10:06;;;;;;;6.72;2.50;;;;;;;16.91;75.42;101886.97;5206088;28;20095;-68
2022/09/01 08:12:37;;;;;;;7.10;2.80;;;;;;;16.97;75.90;101886.44;5209688;28;20033;-68
2022/09/01 08:15:11;;;;;;;7.60;2.47;;;;;;;17.11;74.78;101881.69;5210613;28;20041;-68
2022/09/01 08:17:43;;;;;;;6.78;2.60;;;;;;;17.34;74.89;101895.84;5204683;28;20083;-68
2022/09/01 08:20:14;;;;;;;7.88;2.33;;;;;;;17.43;74.73;101887.78;5209868;28;20026;-68
2022/09/01 08:22:46;;;;;;;6.97;2.80;;;;;;;17.51;75.39;101881.69;5205490;28;20045;-69
2022/09/01 08:25:17;;;;;;;6.00;2.50;;;;;;;17.60;73.93;101890.81;5205695;28;20025;-69
2022/09/01 08:27:48;;;;;;;6.47;2.17;;;;;;;17.79;73.47;101885.44;5211296;28;20034;-69
2022/09/01 08:30:20;;;;;;;5.97;2.63;;;;;;;17.86;73.78;101893.88;5210694;28;20376;-69
2022/09/01 08:32:51;;;;;;;4.35;2.30;;;;;;;18.14;71.94;101886.81;5210981;28;20382;-69
2022/09/01 08:35:22;;;;;;;5.10;2.40;;;;;;;18.12;72.03;101888.81;5210851;28;20464;-69
2022/09/01 08:37:55;;;;;;;6.47;2.42;;;;;;;18.30;71.96;101883.53;5209792;28;20026;-69
2022/09/01 08:40:26;;;;;;;5.15;2.70;;;;;;;18.40;70.32;101881.69;5207605;28;20436;-68
2022/09/01 08:43:29;;;;;;;8.23;2.70;;;;;;;18.48;71.86;101889.06;5209903;28;20025;-69
2022/09/01 08:46:11;;;;;;;8.73;2.70;;;;;;;18.54;70.56;101893.03;5207964;28;20091;-69
2022/09/01 08:48:47;;;;;;;5.40;2.67;;;;;;;18.61;71.06;101886.91;5210359;28;20507;-69
2022/09/01 08:51:41;;;;;;;5.28;2.50;;;;;;;18.82;70.78;101896.75;5210538;28;20033;-70
2022/09/01 08:54:25;;;;;;;7.32;2.58;;;;;;;18.81;71.13;101886.91;5212686;28;20026;-69
2022/09/01 08:57:00;;;;;;;6.20;2.25;;;;;;;18.91;69.83;101889.63;5209913;28;20125;-69
2022/09/01 08:59:31;;;;;;;5.95;2.42;;;;;;;19.05;69.19;101883.72;5209683;28;20144;-69
2022/09/01 09:02:19;;;;;;;7.20;2.40;;;;;;;19.00;71.05;101884.16;5208574;28;20030;-69
2022/09/01 09:05:21;;;;;;;7.28;2.15;;;;;;;19.20;69.08;101882.25;5206087;28;20033;-69
2022/09/01 09:08:10;;;;;;;8.15;2.40;;;;;;;19.30;68.76;101875.94;5201026;28;20475;-68
2022/09/01 09:10:59;;;;;;;5.88;2.22;;;;;;;19.50;69.10;101877.56;5204045;28;20033;-69
2022/09/01 09:13:40;;;;;;;5.63;2.25;;;;;;;19.61;68.25;101878.34;5204142;28;20029;-69
2022/09/01 09:16:19;;;;;;;5.22;2.10;;;;;;;19.60;68.54;101882.91;5202202;28;20029;-69
2022/09/01 09:18:58;;;;;;;6.13;2.78;;;;;;;19.73;66.58;101874.44;5201799;28;20389;-68
2022/09/01 09:21:38;;;;;;;4.78;2.20;;;;;;;19.78;66.90;101872.97;5204698;28;20049;-69
2022/09/01 09:24:54;;;;;;;7.55;2.42;;;;;;;19.84;66.93;101873.38;5201984;28;20041;-69
2022/09/01 09:27:41;;;;;;;6.50;2.95;;;;;;;20.02;65.72;101867.97;5201579;28;20041;-69
2022/09/01 09:30:18;;;;;;;7.18;2.50;;;;;;;20.08;65.03;101873.63;5202618;28;20037;-69
2022/09/01 09:32:54;;;;;;;6.20;2.33;;;;;;;20.14;63.62;101864.88;5203050;28;20548;-68
2022/09/01 09:35:43;;;;;;;6.72;2.15;;;;;;;20.34;63.46;101870.97;5203080;28;20154;-69
2022/09/01 09:38:27;;;;;;;8.23;2.63;;;;;;;20.49;62.85;101857.69;5202918;28;20038;-69
2022/09/01 09:41:18;;;;;;;5.90;2.22;;;;;;;20.55;62.97;101859.78;5206269;28;20079;-69
2022/09/01 09:43:59;;;;;;;5.50;2.05;;;;;;;20.54;64.43;101849.13;5207810;28;20147;-68
2022/09/01 09:46:31;;;;;;;7.95;2.00;;;;;;;20.53;63.48;101853.66;5210304;28;20079;-69
2022/09/01 09:49:32;;;;;;;6.43;1.98;;;;;;;20.69;62.92;101849.38;5208016;28;20046;-69
2022/09/01 09:52:17;;;;;;;7.13;1.70;;;;;;;20.76;60.02;101843.16;5198933;28;20037;-69
2022/09/01 09:55:05;;;;;;;6.28;1.80;;;;;;;20.87;59.44;101847.47;5200635;28;20038;-68
2022/09/01 09:57:40;;;;;;;5.38;1.50;;;;;;;21.12;57.58;101844.91;5206563;28;20063;-69
2022/09/01 10:00:22;;;;;;;4.78;1.60;;;;;;;21.17;58.48;101839.84;5198487;28;20034;-69
2022/09/01 10:02:57;;;;;;;4.50;1.20;;;;;;;21.25;55.94;101845.31;5202958;28;20065;-69
2022/09/01 10:05:47;;;;;;;4.03;1.23;;;;;;;21.32;53.41;101832.78;5206012;28;20655;-69
2022/09/01 10:08:36;;;;;;;4.57;1.42;;;;;;;21.35;54.63;101832.44;5201929;28;20026;-69
2022/09/01 10:11:07;;;;;;;4.20;1.77;;;;;;;21.38;55.01;101825.81;5203780;28;20577;-69
2022/09/01 10:13:38;;;;;;;4.25;1.10;;;;;;;21.54;53.41;101828.63;5202851;28;20095;-70
2022/09/01 10:16:24;;;;;;;8.35;2.05;;;;;;;21.56;53.98;101831.19;5197598;28;20030;-69
2022/09/01 10:18:59;;;;;;;3.25;1.15;;;;;;;21.58;54.25;101829.16;5200121;28;20372;-69
2022/09/01 10:21:36;;;;;;;5.72;1.10;;;;;;;21.50;54.00;101827.25;5204449;28;20737;-69
2022/09/01 10:24:30;;;;;;;2.60;0.90;;;;;;;21.70;50.65;101821.53;5198674;28;20086;-69
2022/09/01 10:27:09;;;;;;;2.55;0.90;;;;;;;21.57;51.59;101819.28;5205622;28;20467;-69
2022/09/01 10:29:44;;;;;;;2.97;0.98;;;;;;;21.77;49.47;101827.16;5200328;28;20503;-69
2022/09/01 10:32:25;;;;;;;3.08;0.70;;;;;;;21.77;51.01;101822.56;5199070;28;20025;-69
2022/09/01 10:34:57;;;;;;;4.13;0.90;;;;;;;21.87;48.77;101817.81;5195744;28;20146;-69
2022/09/01 10:37:30;;;;;;;6.55;1.17;;;;;;;22.03;49.38;101825.13;5199828;28;20136;-69
2022/09/01 10:40:39;;;;;;;6.23;1.03;;;;;;;22.07;51.01;101828.38;5196753;28;20038;-69
2022/09/01 10:43:23;;;;;;;2.33;0.90;;;;;;;21.95;51.97;101829.72;5194845;28;20041;-69
2022/09/01 10:45:54;;;;;;;6.47;1.70;;;;;;;22.22;47.34;101823.94;5209161;28;20033;-69
2022/09/01 10:48:29;;;;;;;2.72;0.80;;;;;;;22.14;47.32;101821.25;5204038;28;20457;-70
2022/09/01 10:51:13;;;;;;;1.98;0.90;;;;;;;22.10;49.23;101831.59;5205564;28;20041;-69
2022/09/01 10:53:46;;;;;;;3.53;1.05;;;;;;;22.28;47.16;101822.44;5206431;28;20407;-69
2022/09/01 10:56:50;;;;;;;3.83;0.90;;;;;;;22.29;49.06;101819.56;5209819;28;20083;-69
2022/09/01 10:59:22;;;;;;;6.95;1.10;;;;;;;22.28;47.32;101819.72;5203526;28;20111;-69
2022/09/01 11:01:53;;;;;;;4.57;1.20;;;;;;;22.17;49.01;101814.59;5210635;28;20113;-69
2022/09/01 11:04:31;;;;;;;4.32;1.00;;;;;;;22.09;50.65;101816.31;5229794;28;20551;-69
2022/09/01 11:07:05;;;;;;;3.60;0.93;;;;;;;22.27;44.13;101821.59;5207814;28;20041;-70
2022/09/01 11:09:39;;;;;;;2.97;1.00;;;;;;;22.30;43.90;101817.69;5209472;28;20034;-69
2022/09/01 11:12:38;;;;;;;2.92;0.80;;;;;;;22.41;45.73;101813.78;5204146;28;20022;-69
2022/09/01 11:15:12;;;;;;;2.92;1.10;;;;;;;22.36;47.44;101817.03;5199094;28;20112;-70
2022/09/01 11:17:49;;;;;;;4.90;1.10;;;;;;;22.22;45.66;101809.50;5209362;28;20433;-70
2022/09/01 11:20:28;;;;;;;3.80;0.85;;;;;;;22.33;46.34;101808.34;5209563;28;20456;-70
2022/09/01 11:23:10;;;;;;;3.95;1.00;;;;;;;22.46;46.99;101811.41;5200041;28;20370;-68
2022/09/01 11:25:44;;;;;;;3.20;1.00;;;;;;;22.54;46.23;101805.94;5207665;28;20038;-69
2022/09/01 11:28:15;;;;;;;3.50;1.00;;;;;;;22.48;45.80;101803.91;5212111;28;20021;-69
2022/09/01 11:30:55;;;;;;;3.85;0.90;;;;;;;22.60;45.68;101801.69;5207892;28;20030;-69
2022/09/01 11:33:39;;;;;;;2.88;0.85;;;;;;;22.64;45.03;101794.88;5207824;28;20026;-68
2022/09/01 11:36:34;;;;;;;3.72;1.05;;;;;;;22.61;45.03;101787.91;5209044;28;20482;-68
2022/09/01 11:39:49;;;;;;;3.67;1.10;;;;;;;22.57;44.72;101789.28;5198809;28;21847;-68
2022/09/01 11:42:31;;;;;;;3.75;1.00;;;;;;;22.75;44.46;101786.34;5201447;28;20042;-68
2022/09/01 11:45:22;;;;;;;4.65;0.90;;;;;;;22.71;45.82;101791.28;5203779;28;20387;-68
2022/09/01 11:47:56;;;;;;;3.10;0.90;;;;;;;22.63;44.72;101785.88;5197584;28;20030;-69
2022/09/01 11:50:31;;;;;;;4.68;1.08;;;;;;;22.81;44.90;101777.47;5204252;28;20054;-68
2022/09/01 11:53:14;;;;;;;3.30;0.82;;;;;;;22.89;43.10;101784.75;5211006;28;20037;-68
2022/09/01 11:55:49;;;;;;;2.63;0.70;;;;;;;22.94;40.73;101779.63;5197834;28;20348;-68
2022/09/01 11:58:33;;;;;;;3.38;1.00;;;;;;;22.87;43.63;101774.03;5205301;28;20019;-68
2022/09/01 12:01:38;;;;;;;3.70;0.93;;;;;;;22.95;43.41;101767.72;5205001;28;20070;-68
2022/09/01 12:04:24;;;;;;;;;;;;;;;22.89;45.37;101760.25;5206334;28;20820;-68
2022/09/01 12:06:59;;;;;;;2.10;0.70;;;;;;;22.96;43.58;101757.69;5207921;28;19917;-68
2022/09/01 12:09:50;;;;;;;2.17;0.90;;;;;;;23.09;42.99;101755.28;5206805;28;20056;-68
2022/09/01 12:12:36;;;;;;;2.95;0.98;;;;;;;23.27;41.11;101758.56;5200629;28;20038;-68